createdAt,value
2018-07-05T03:17:55.071Z,90.15
2018-07-05T03:18:47.263Z,90.63
2018-07-05T03:20:40.408Z,90.24
2018-07-05T03:21:40.334Z,90.53
2018-07-05T03:23:33.660Z,90.63
2018-07-05T03:24:33.623Z,90.91
2018-07-05T03:26:26.466Z,90.44
2018-07-05T03:27:27.039Z,90.05
2018-07-05T03:29:20.028Z,90.53
2018-07-05T03:30:21.816Z,90.05
2018-07-05T03:32:13.097Z,90.24
2018-07-05T03:33:13.068Z,90.44
2018-07-05T03:34:13.038Z,90.44
2018-07-05T03:35:13.015Z,90.05
2018-07-05T03:36:12.993Z,90.34
2018-07-05T03:37:12.965Z,90.63
2018-07-05T03:38:12.941Z,90.24
2018-07-05T03:39:12.913Z,90.24
2018-07-05T03:40:12.887Z,90.34
2018-07-05T03:41:12.864Z,90.44
2018-07-05T03:42:12.835Z,90.34
2018-07-05T03:43:12.812Z,90.15
2018-07-05T03:44:12.785Z,90.15
2018-07-05T03:45:12.760Z,90.15
2018-07-05T03:46:12.736Z,89.90
2018-07-05T03:47:12.707Z,90.09
2018-07-05T03:48:13.399Z,90.09
2018-07-05T03:49:12.663Z,90.15
2018-07-05T03:50:12.631Z,90.19
2018-07-05T03:51:12.608Z,90.44
2018-07-05T03:52:12.595Z,90.48
2018-07-05T03:53:12.555Z,91.05
2018-07-05T03:54:12.530Z,90.48
2018-07-05T03:55:12.504Z,90.09
2018-07-05T03:56:12.483Z,89.52
2018-07-05T03:57:12.453Z,89.14
2018-07-05T03:58:12.426Z,88.76
2018-07-05T03:59:12.406Z,88.76
2018-07-05T04:00:12.373Z,88.76
2018-07-05T04:01:12.349Z,88.23
2018-07-05T04:02:12.325Z,88.03
2018-07-05T04:03:12.300Z,88.42
2018-07-05T04:04:12.274Z,88.70
2018-07-05T04:05:12.252Z,88.61
2018-07-05T04:06:12.227Z,88.28
2018-07-05T04:07:12.199Z,88.70
2018-07-05T04:08:12.180Z,88.32
2018-07-05T04:09:12.150Z,87.65
2018-07-05T04:10:12.125Z,86.74
2018-07-05T04:11:12.099Z,84.86
2018-07-05T04:12:12.073Z,83.18
2018-07-05T04:13:12.047Z,81.87
2018-07-05T04:14:12.025Z,80.82
2018-07-05T04:15:12.001Z,79.86
2018-07-05T04:16:11.975Z,79.13
2018-07-05T04:17:11.944Z,77.15
2018-07-05T04:18:11.923Z,76.39
2018-07-05T04:19:11.899Z,75.62
2018-07-05T04:20:12.402Z,76.19
2018-07-05T04:21:12.406Z,75.27
2018-07-05T04:22:11.841Z,74.34
2018-07-05T04:23:11.806Z,73.19
2018-07-05T04:24:11.782Z,72.65
2018-07-05T04:25:11.757Z,72.74
2018-07-05T04:26:11.735Z,72.80
2018-07-05T04:27:11.712Z,73.57
2018-07-05T04:28:11.690Z,73.57
2018-07-05T04:29:11.670Z,74.21
2018-07-05T04:30:11.649Z,74.30
2018-07-05T04:31:11.624Z,74.25
2018-07-05T04:32:11.605Z,73.42
2018-07-05T04:33:11.576Z,72.26
2018-07-05T04:34:11.592Z,73.42
2018-07-05T04:35:11.535Z,72.94
2018-07-05T04:36:11.516Z,74.05
2018-07-05T04:37:11.493Z,74.25
2018-07-05T04:38:11.471Z,74.63
2018-07-05T04:39:11.457Z,74.73
2018-07-05T04:40:11.443Z,74.54
2018-07-05T04:41:11.410Z,74.25
2018-07-05T04:42:11.385Z,73.22
2018-07-05T04:43:11.367Z,72.26
2018-07-05T04:44:11.345Z,71.72
2018-07-05T04:45:11.324Z,71.04
2018-07-05T04:46:11.302Z,70.53
2018-07-05T04:47:11.286Z,70.70
2018-07-05T04:48:11.262Z,69.54
2018-07-05T04:49:11.242Z,67.84
2018-07-05T04:50:11.222Z,66.91
2018-07-05T04:51:11.201Z,66.08
2018-07-05T04:52:11.187Z,65.69
2018-07-05T04:53:11.163Z,65.05
2018-07-05T04:54:11.155Z,64.56
2018-07-05T04:55:11.123Z,65.11
2018-07-05T04:56:11.100Z,66.33
2018-07-05T04:57:11.078Z,67.58
2018-07-05T04:58:11.064Z,68.04
2018-07-05T04:59:11.914Z,68.61
2018-07-05T05:00:11.025Z,69.09
2018-07-05T05:01:18.924Z,68.55
2018-07-05T05:03:03.838Z,68.52
2018-07-05T05:04:03.806Z,68.45
2018-07-05T05:05:56.659Z,68.16
2018-07-05T05:06:56.611Z,66.36
2018-07-05T05:08:49.543Z,67.49
2018-07-05T05:09:49.414Z,67.58
2018-07-05T05:10:52.030Z,67.88
2018-07-05T05:11:49.384Z,69.19
2018-07-05T05:12:49.359Z,71.08
2018-07-05T05:13:49.338Z,73.42
2018-07-05T05:14:49.330Z,75.11
2018-07-05T05:15:49.296Z,76.71
2018-07-05T05:16:49.280Z,77.96
2018-07-05T05:17:49.258Z,80.38
2018-07-05T05:18:49.270Z,81.72
2018-07-05T05:19:49.218Z,82.54
2018-07-05T05:24:11.699Z,85.14
2018-07-05T05:25:11.616Z,85.52
2018-07-05T05:27:11.575Z,84.95
2018-07-05T05:29:11.544Z,85.24
2018-07-05T05:30:11.525Z,84.66
2018-07-05T05:31:12.374Z,84.56
2018-07-05T05:32:12.369Z,84.12
2018-07-05T05:33:11.462Z,84.85
2018-07-05T05:34:11.440Z,84.66
2018-07-05T05:35:11.416Z,84.56
2018-07-05T05:36:11.389Z,84.89
2018-07-05T05:37:11.371Z,84.85
2018-07-05T05:38:11.352Z,84.41
2018-07-05T05:39:11.329Z,84.12
2018-07-05T05:40:11.306Z,83.26
2018-07-05T05:41:11.283Z,83.74
2018-07-05T05:42:11.262Z,83.16
2018-07-05T05:43:11.240Z,83.16
2018-07-05T05:44:11.214Z,83.26
2018-07-05T05:45:11.194Z,83.07
2018-07-05T05:46:11.176Z,83.26
2018-07-05T05:47:11.153Z,84.03
2018-07-05T05:48:11.212Z,83.74
2018-07-05T05:49:11.109Z,82.43
2018-07-05T05:50:11.075Z,82.87
2018-07-05T05:51:11.056Z,83.26
2018-07-05T05:52:11.038Z,83.36
2018-07-05T05:53:11.020Z,83.01
2018-07-05T05:54:10.992Z,83.16
2018-07-05T05:55:10.975Z,83.45
2018-07-05T05:56:10.953Z,82.92
2018-07-05T05:57:10.929Z,82.97
2018-07-05T05:58:10.908Z,82.92
2018-07-05T05:59:10.882Z,82.82
2018-07-05T06:03:10.800Z,80.36
2018-07-05T06:04:10.767Z,80.46
2018-07-05T06:05:10.742Z,80.65
2018-07-05T06:06:10.774Z,80.75
2018-07-05T06:07:10.704Z,80.90
2018-07-05T06:08:10.750Z,81.09
2018-07-05T06:09:10.658Z,81.32
2018-07-05T06:10:10.637Z,81.23
2018-07-05T06:14:10.552Z,81.57
2018-07-05T06:15:11.383Z,80.27
2018-07-05T06:16:10.504Z,79.69
2018-07-05T06:17:10.521Z,79.30
2018-07-05T06:18:10.466Z,79.21
2018-07-05T06:19:10.446Z,80.46
2018-07-05T06:20:10.416Z,80.94
2018-07-05T06:21:10.387Z,80.17
2018-07-05T06:22:12.883Z,79.73
2018-07-05T06:23:10.880Z,78.67
2018-07-05T06:24:10.332Z,78.48
2018-07-05T06:25:10.314Z,79.30
2018-07-05T06:29:10.228Z,78.38
2018-07-05T06:30:10.203Z,77.23
2018-07-05T06:31:10.178Z,78.25
2018-07-05T06:32:10.157Z,79.40
2018-07-05T06:33:10.134Z,79.94
2018-07-05T06:34:10.167Z,80.42
2018-07-05T06:35:10.098Z,79.88
2018-07-05T06:36:10.073Z,79.11
2018-07-05T06:37:10.049Z,78.44
2018-07-05T06:38:10.895Z,78.34
2018-07-05T06:39:10.008Z,78.53
2018-07-05T06:40:09.984Z,78.00
2018-07-05T06:41:09.960Z,76.65
2018-07-05T06:42:09.938Z,77.08
2018-07-05T06:43:09.917Z,76.26
2018-07-05T06:44:09.914Z,76.46
2018-07-05T06:45:09.877Z,76.21
2018-07-05T06:46:09.857Z,76.46
2018-07-05T06:50:09.773Z,77.13
2018-07-05T06:52:09.728Z,76.36
2018-07-05T06:53:09.753Z,76.75
2018-07-05T06:54:09.723Z,75.98
2018-07-05T06:55:09.665Z,75.79
2018-07-05T06:56:09.642Z,76.31
2018-07-05T06:57:09.628Z,76.17
2018-07-05T06:58:09.604Z,76.46
2018-07-05T06:59:10.470Z,75.63
2018-07-05T07:00:09.565Z,75.54
2018-07-05T07:01:09.537Z,75.44
2018-07-05T07:02:09.516Z,74.48
2018-07-05T07:03:09.495Z,74.32
2018-07-05T07:04:09.470Z,73.90
2018-07-05T07:05:09.453Z,73.42
2018-07-05T07:06:09.430Z,73.55
2018-07-05T07:07:09.408Z,73.42
2018-07-05T07:11:09.329Z,73.61
2018-07-05T07:12:09.306Z,72.88
2018-07-05T07:13:09.283Z,72.68
2018-07-05T07:14:09.265Z,71.91
2018-07-05T07:15:09.242Z,71.62
2018-07-05T07:16:09.282Z,71.24
2018-07-05T07:17:09.209Z,71.14
2018-07-05T07:18:09.180Z,71.53
2018-07-05T07:19:09.158Z,71.49
2018-07-05T07:20:09.140Z,71.69
2018-07-05T07:21:09.161Z,71.34
2018-07-05T07:22:09.098Z,70.86
2018-07-05T07:23:09.074Z,70.56
2018-07-05T07:24:09.066Z,70.76
2018-07-05T07:25:09.042Z,71.18
2018-07-05T07:26:09.014Z,69.83
2018-07-05T07:27:09.895Z,69.73
2018-07-05T07:28:08.975Z,69.09
2018-07-05T07:29:08.952Z,68.13
2018-07-05T07:30:08.932Z,68.80
2018-07-05T07:31:08.912Z,68.61
2018-07-05T07:32:08.891Z,68.96
2018-07-05T07:33:08.884Z,69.73
2018-07-05T07:34:08.856Z,69.19
2018-07-05T07:35:08.846Z,69.19
2018-07-05T07:36:08.810Z,68.90
2018-07-05T07:37:08.792Z,69.45
2018-07-05T07:38:08.772Z,68.58
2018-07-05T07:39:08.752Z,69.73
2018-07-05T07:43:08.670Z,69.87
2018-07-05T07:44:08.653Z,70.06
2018-07-05T07:45:08.634Z,70.06
2018-07-05T07:46:08.611Z,70.35
2018-07-05T07:47:08.603Z,70.19
2018-07-05T07:48:08.573Z,70.19
2018-07-05T07:49:08.551Z,69.61
2018-07-05T07:50:08.532Z,69.23
2018-07-05T07:51:08.558Z,68.55
2018-07-05T07:52:08.495Z,68.59
2018-07-05T07:53:08.471Z,68.01
2018-07-05T07:54:08.457Z,68.01
2018-07-05T07:55:08.429Z,67.33
2018-07-05T07:56:08.412Z,66.94
2018-07-05T07:57:08.390Z,67.43
2018-07-05T07:58:08.395Z,67.04
2018-07-05T07:59:08.353Z,67.62
2018-07-05T08:00:08.333Z,67.23
2018-07-05T08:01:08.317Z,67.52
2018-07-05T08:02:08.322Z,67.33
2018-07-05T08:03:08.275Z,67.43
2018-07-05T08:04:08.265Z,67.43
2018-07-05T08:08:09.959Z,66.75
2018-07-05T08:09:08.161Z,66.94
2018-07-05T08:10:08.140Z,66.27
2018-07-05T08:11:08.122Z,66.27
2018-07-05T08:12:08.163Z,66.56
2018-07-05T08:13:08.084Z,66.85
2018-07-05T08:14:08.063Z,66.36
2018-07-05T08:15:08.052Z,66.46
2018-07-05T08:16:08.022Z,66.75
2018-07-05T08:17:08.008Z,66.08
2018-07-05T08:18:07.985Z,66.01
2018-07-05T08:22:07.911Z,65.34
2018-07-05T08:23:07.896Z,64.56
2018-07-05T08:24:07.873Z,64.37
2018-07-05T08:25:07.853Z,64.37
2018-07-05T08:26:07.842Z,64.53
2018-07-05T08:27:07.813Z,64.63
2018-07-05T08:28:08.412Z,64.37
2018-07-05T08:29:07.778Z,63.60
2018-07-05T08:30:07.757Z,63.60
2018-07-05T08:31:07.738Z,62.34
2018-07-05T08:32:07.716Z,62.25
2018-07-05T08:33:07.697Z,62.63
2018-07-05T08:34:07.683Z,62.73
2018-07-05T08:35:07.669Z,62.44
2018-07-05T08:36:07.642Z,61.67
2018-07-05T08:37:07.628Z,62.05
2018-07-05T08:38:07.605Z,61.12
2018-07-05T08:39:07.589Z,60.44
2018-07-05T08:40:07.597Z,60.25
2018-07-05T08:41:07.551Z,60.25
2018-07-05T08:42:07.535Z,60.35
2018-07-05T08:43:07.512Z,59.48
2018-07-05T08:44:07.495Z,59.48
2018-07-05T08:48:09.409Z,58.83
2018-07-05T08:49:07.399Z,59.31
2018-07-05T08:50:07.380Z,58.25
2018-07-05T08:51:07.406Z,57.77
2018-07-05T08:52:07.346Z,58.15
2018-07-05T08:53:07.328Z,58.25
2018-07-05T08:54:07.308Z,57.29
2018-07-05T08:55:07.293Z,56.90
2018-07-05T08:56:07.270Z,56.80
2018-07-05T08:57:07.257Z,56.80
2018-07-05T08:58:07.237Z,56.03
2018-07-05T08:59:08.917Z,56.41
2018-07-05T09:00:07.197Z,56.32
2018-07-05T09:01:07.180Z,55.55
2018-07-05T09:02:07.164Z,55.93
2018-07-05T09:03:07.143Z,55.38
2018-07-05T09:04:07.125Z,55.09
2018-07-05T09:05:07.118Z,55.19
2018-07-05T09:06:07.089Z,55.19
2018-07-05T09:07:07.921Z,54.80
2018-07-05T09:08:07.059Z,54.90
2018-07-05T09:09:16.988Z,54.71
2018-07-05T09:10:07.922Z,54.80
2018-07-05T09:11:06.999Z,53.83
2018-07-05T09:12:06.978Z,53.35
2018-07-05T09:13:06.969Z,53.45
2018-07-05T09:14:06.948Z,54.03
2018-07-05T09:15:06.933Z,53.19
2018-07-05T09:16:06.907Z,53.38
2018-07-05T09:17:06.892Z,52.34
2018-07-05T09:21:06.822Z,50.67
2018-07-05T09:22:06.802Z,51.64
2018-07-05T09:23:06.837Z,51.44
2018-07-05T09:25:06.747Z,51.64
2018-07-05T09:26:06.734Z,51.93
2018-07-05T09:27:06.714Z,51.83
2018-07-05T09:28:06.694Z,50.38
2018-07-05T09:29:08.421Z,50.76
2018-07-05T09:30:06.662Z,50.89
2018-07-05T09:31:06.686Z,50.60
2018-07-05T09:32:06.631Z,49.99
2018-07-05T09:33:06.619Z,50.02
2018-07-05T09:34:06.588Z,50.12
2018-07-05T09:35:08.426Z,49.82
2018-07-05T09:36:06.553Z,49.54
2018-07-05T09:40:06.487Z,48.27
2018-07-05T09:41:07.434Z,48.66
2018-07-05T09:42:07.427Z,48.59
2018-07-05T09:43:06.433Z,48.30
2018-07-05T09:44:06.410Z,48.11
2018-07-05T09:45:06.398Z,47.43
2018-07-05T09:46:06.375Z,47.52
2018-07-05T09:47:06.450Z,48.01
2018-07-05T09:48:06.340Z,47.33
2018-07-05T09:49:06.325Z,47.14
2018-07-05T09:50:06.309Z,46.94
2018-07-05T09:51:06.293Z,46.66
2018-07-05T09:52:06.284Z,46.84
2018-07-05T09:53:06.258Z,47.14
2018-07-05T09:54:06.238Z,46.46
2018-07-05T09:58:06.238Z,47.43
2018-07-05T09:59:07.931Z,46.94
2018-07-05T10:00:06.132Z,46.94
2018-07-05T10:01:06.119Z,47.06
2018-07-05T10:02:06.104Z,47.06
2018-07-05T10:03:06.090Z,46.67
2018-07-05T10:04:06.091Z,46.66
2018-07-05T10:05:06.057Z,46.75
2018-07-05T10:06:06.032Z,47.04
2018-07-05T10:07:06.016Z,46.97
2018-07-05T10:08:06.006Z,46.29
2018-07-05T10:09:05.985Z,45.71
2018-07-05T10:10:05.962Z,45.81
2018-07-05T10:11:05.951Z,45.81
2018-07-05T10:12:05.928Z,45.51
2018-07-05T10:13:06.090Z,44.86
2018-07-05T10:17:05.861Z,44.57
2018-07-05T10:18:05.827Z,44.96
2018-07-05T10:19:05.817Z,44.86
2018-07-05T10:20:05.793Z,44.18
2018-07-05T10:21:05.775Z,44.37
2018-07-05T10:22:05.757Z,44.27
2018-07-05T10:23:05.754Z,44.18
2018-07-05T10:24:05.727Z,43.70
2018-07-05T10:28:05.669Z,43.89
2018-07-05T10:29:05.648Z,43.99
2018-07-05T10:30:05.624Z,43.89
2018-07-05T10:31:05.608Z,43.79
2018-07-05T10:32:05.590Z,44.09
2018-07-05T10:33:05.575Z,43.31
2018-07-05T10:34:05.558Z,43.60
2018-07-05T10:35:05.538Z,43.82
2018-07-05T10:36:05.525Z,42.94
2018-07-05T10:37:05.503Z,42.26
2018-07-05T10:38:05.488Z,41.68
2018-07-05T10:39:06.438Z,42.17
2018-07-05T10:40:05.461Z,42.67
2018-07-05T10:41:05.441Z,42.17
2018-07-05T10:42:05.425Z,41.89
2018-07-05T10:46:05.412Z,41.61
2018-07-05T10:47:05.340Z,41.61
2018-07-05T10:48:05.327Z,41.41
2018-07-05T10:49:05.307Z,41.31
2018-07-05T10:50:05.296Z,39.98
2018-07-05T10:51:05.277Z,38.70
2018-07-05T10:52:05.257Z,38.99
2018-07-05T10:53:05.241Z,39.28
2018-07-05T10:54:05.223Z,40.05
2018-07-05T10:55:05.203Z,40.54
2018-07-05T10:56:05.189Z,40.44
2018-07-05T10:57:05.178Z,40.26
2018-07-05T10:58:05.159Z,40.25
2018-07-05T10:59:05.141Z,39.28
2018-07-05T11:00:05.125Z,39.24
2018-07-05T11:01:05.137Z,39.92
2018-07-05T11:02:05.092Z,40.01
2018-07-05T11:03:05.077Z,39.53
2018-07-05T11:04:05.059Z,39.24
2018-07-05T11:05:05.042Z,39.06
2018-07-05T11:06:05.966Z,39.74
2018-07-05T11:07:05.063Z,40.13
2018-07-05T11:08:04.993Z,40.52
2018-07-05T11:09:04.977Z,40.25
2018-07-05T11:10:04.966Z,39.08
2018-07-05T11:11:04.949Z,39.28
2018-07-05T11:12:04.927Z,38.13
2018-07-05T11:13:04.910Z,38.23
2018-07-05T11:14:04.892Z,37.74
2018-07-05T11:15:04.875Z,37.26
2018-07-05T11:16:04.862Z,37.15
2018-07-05T11:17:04.839Z,37.07
2018-07-05T11:18:04.820Z,36.68
2018-07-05T11:19:04.813Z,36.40
2018-07-05T11:20:04.795Z,37.18
2018-07-05T11:21:04.787Z,36.68
2018-07-05T11:22:07.453Z,36.50
2018-07-05T11:23:04.750Z,36.69
2018-07-05T11:24:04.727Z,37.18
2018-07-05T11:25:04.713Z,38.23
2018-07-05T11:26:04.706Z,39.28
2018-07-05T11:27:04.686Z,39.57
2018-07-05T11:28:07.455Z,39.59
2018-07-05T11:29:04.646Z,39.76
2018-07-05T11:30:04.635Z,40.05
2018-07-05T11:31:04.619Z,39.95
2018-07-05T11:32:04.600Z,39.20
2018-07-05T11:33:04.587Z,38.81
2018-07-05T11:34:04.568Z,38.62
2018-07-05T11:35:04.550Z,38.64
2018-07-05T11:36:04.535Z,38.99
2018-07-05T11:37:04.525Z,39.95
2018-07-05T11:38:04.501Z,39.76
2018-07-05T11:39:04.488Z,40.13
2018-07-05T11:40:04.479Z,39.74
2018-07-05T11:41:04.470Z,38.40
2018-07-05T11:42:04.445Z,37.73
2018-07-05T11:43:04.423Z,37.84
2018-07-05T11:44:04.407Z,37.86
2018-07-05T11:45:04.399Z,37.94
2018-07-05T11:46:04.373Z,38.89
2018-07-05T11:47:04.354Z,38.79
2018-07-05T11:48:04.347Z,38.70
2018-07-05T11:49:04.329Z,38.89
2018-07-05T11:50:04.313Z,38.99
2018-07-05T11:51:04.290Z,38.70
2018-07-05T11:52:04.280Z,39.37
2018-07-05T11:53:04.262Z,39.74
2018-07-05T11:54:04.240Z,40.03
2018-07-05T11:55:04.226Z,39.08
2018-07-05T11:56:04.217Z,38.60
2018-07-05T11:57:04.194Z,38.70
2018-07-05T11:58:04.186Z,38.21
2018-07-05T11:59:04.173Z,38.13
2018-07-05T12:00:04.144Z,38.70
2018-07-05T12:01:04.130Z,39.28
2018-07-05T12:02:04.132Z,39.37
2018-07-05T12:03:04.108Z,39.18
2018-07-05T12:04:04.147Z,38.62
2018-07-05T12:05:04.062Z,38.52
2018-07-05T12:06:04.048Z,38.40
2018-07-05T12:07:04.032Z,38.79
2018-07-05T12:08:04.028Z,38.70
2018-07-05T12:09:03.998Z,38.70
2018-07-05T12:10:03.979Z,39.08
2018-07-05T12:11:03.965Z,38.79
2018-07-05T12:12:03.945Z,39.08
2018-07-05T12:13:03.934Z,38.91
2018-07-05T12:14:03.905Z,38.70
2018-07-05T12:15:03.904Z,38.62
2018-07-05T12:16:03.883Z,38.60
2018-07-05T12:17:03.863Z,38.40
2018-07-05T12:18:03.854Z,38.62
2018-07-05T12:19:03.832Z,37.94
2018-07-05T12:20:03.809Z,38.32
2018-07-05T12:21:03.880Z,38.23
2018-07-05T12:22:03.781Z,38.70
2018-07-05T12:23:03.771Z,38.89
2018-07-05T12:24:03.789Z,38.89
2018-07-05T12:25:03.741Z,38.70
2018-07-05T12:26:03.716Z,38.79
2018-07-05T12:27:03.710Z,38.89
2018-07-05T12:28:03.675Z,38.91
2018-07-05T12:29:03.720Z,38.89
2018-07-05T12:30:03.645Z,39.08
2018-07-05T12:31:03.634Z,38.81
2018-07-05T12:32:03.624Z,38.99
2018-07-05T12:33:03.602Z,39.18
2018-07-05T12:34:03.582Z,39.67
2018-07-05T12:35:05.487Z,39.76
2018-07-05T12:36:03.554Z,39.47
2018-07-05T12:37:03.523Z,39.47
2018-07-05T12:38:03.569Z,39.29
2018-07-05T12:39:03.499Z,39.08
2018-07-05T12:40:03.480Z,40.05
2018-07-05T12:41:03.468Z,39.76
2018-07-05T12:42:03.447Z,39.88
2018-07-05T12:43:03.435Z,39.78
2018-07-05T12:44:03.429Z,39.49
2018-07-05T12:45:03.401Z,39.76
2018-07-05T12:46:03.972Z,39.47
2018-07-05T12:47:03.363Z,39.88
2018-07-05T12:48:03.348Z,39.95
2018-07-05T12:49:03.329Z,40.44
2018-07-05T12:50:03.310Z,40.54
2018-07-05T12:51:03.304Z,40.71
2018-07-05T12:52:03.280Z,40.64
2018-07-05T12:53:03.271Z,40.44
2018-07-05T12:54:03.244Z,40.15
2018-07-05T12:55:03.227Z,39.69
2018-07-05T12:56:03.209Z,39.67
2018-07-05T12:57:03.200Z,39.39
2018-07-05T12:58:03.181Z,40.25
2018-07-05T12:59:03.160Z,39.69
2018-07-05T13:00:03.144Z,40.08
2018-07-05T13:01:03.114Z,40.00
2018-07-05T13:02:03.113Z,39.29
2018-07-05T13:03:03.092Z,39.59
2018-07-05T13:04:03.124Z,40.36
2018-07-05T13:05:03.066Z,40.08
2018-07-05T13:06:03.042Z,40.26
2018-07-05T13:07:03.028Z,40.26
2018-07-05T13:08:03.012Z,40.26
2018-07-05T13:09:02.990Z,39.78
2018-07-05T13:10:02.980Z,39.20
2018-07-05T13:11:02.965Z,39.88
2018-07-05T13:12:02.942Z,39.78
2018-07-05T13:13:02.934Z,40.17
2018-07-05T13:14:02.920Z,39.90
2018-07-05T13:15:02.898Z,39.70
2018-07-05T13:16:02.878Z,40.39
2018-07-05T13:17:02.861Z,40.26
2018-07-05T13:18:02.843Z,40.08
2018-07-05T13:19:02.822Z,40.64
2018-07-05T13:20:02.807Z,40.46
2018-07-05T13:21:02.793Z,40.95
2018-07-05T13:22:02.776Z,40.46
2018-07-05T13:23:02.760Z,41.14
2018-07-05T13:24:02.746Z,41.92
2018-07-05T13:25:02.727Z,42.55
2018-07-05T13:26:02.709Z,42.75
2018-07-05T13:27:02.706Z,43.45
2018-07-05T13:28:02.692Z,44.01
2018-07-05T13:29:02.663Z,44.01
2018-07-05T13:30:02.659Z,43.91
2018-07-05T13:31:03.491Z,43.16
2018-07-05T13:32:02.610Z,42.67
2018-07-05T13:33:02.655Z,42.67
2018-07-05T13:34:03.496Z,42.77
2018-07-05T13:35:02.562Z,42.38
2018-07-05T13:36:02.543Z,42.29
2018-07-05T13:37:02.528Z,42.96
2018-07-05T13:38:03.492Z,42.77
2018-07-05T13:39:02.993Z,43.06
2018-07-05T13:40:02.476Z,42.21
2018-07-05T13:41:02.458Z,41.82
2018-07-05T13:42:02.433Z,41.14
2018-07-05T13:43:02.422Z,41.05
2018-07-05T13:44:02.414Z,41.16
2018-07-05T13:45:02.391Z,40.87
2018-07-05T13:46:02.371Z,41.18
2018-07-05T13:47:02.399Z,40.77
2018-07-05T13:48:03.000Z,40.89
2018-07-05T13:49:02.325Z,40.99
2018-07-05T13:50:02.306Z,40.89
2018-07-05T13:51:02.300Z,41.28
2018-07-05T13:52:02.271Z,41.26
2018-07-05T13:53:02.254Z,42.21
2018-07-05T13:54:06.167Z,42.79
2018-07-05T13:55:02.222Z,43.57
2018-07-05T13:56:02.215Z,43.95
2018-07-05T13:57:02.188Z,43.37
2018-07-05T13:58:03.008Z,43.93
2018-07-05T13:59:02.162Z,43.57
2018-07-05T14:00:02.142Z,42.89
2018-07-05T14:01:02.125Z,42.71
2018-07-05T14:02:02.107Z,41.94
2018-07-05T14:03:02.097Z,40.48
2018-07-05T14:04:03.000Z,40.50
2018-07-05T14:05:02.056Z,40.50
2018-07-05T14:06:02.044Z,40.31
2018-07-05T14:07:02.024Z,40.67
2018-07-05T14:08:02.035Z,41.24
2018-07-05T14:09:01.987Z,42.29
2018-07-05T14:10:01.973Z,42.85
2018-07-05T14:11:05.498Z,43.23
2018-07-05T14:12:01.940Z,43.06
2018-07-05T14:13:01.922Z,43.16
2018-07-05T14:14:01.912Z,42.86
2018-07-05T14:15:01.890Z,43.06
2018-07-05T14:16:01.904Z,42.60
2018-07-05T14:17:01.868Z,42.99
2018-07-05T14:18:01.848Z,43.93
2018-07-05T14:19:01.835Z,43.54
2018-07-05T14:20:01.810Z,43.93
2018-07-05T14:21:01.785Z,44.61
2018-07-05T14:22:01.776Z,44.61
2018-07-05T14:23:01.753Z,44.78
2018-07-05T14:24:01.735Z,45.47
2018-07-05T14:25:01.805Z,45.10
2018-07-05T14:26:01.703Z,45.29
2018-07-05T14:27:02.506Z,44.71
2018-07-05T14:28:01.665Z,44.71
2018-07-05T14:29:01.654Z,45.00
2018-07-05T14:30:01.636Z,44.90
2018-07-05T14:31:01.622Z,45.29
2018-07-05T14:32:01.599Z,44.24
2018-07-05T14:33:01.584Z,44.90
2018-07-05T14:34:02.507Z,45.47
2018-07-05T14:35:01.550Z,46.33
2018-07-05T14:36:01.540Z,45.48
2018-07-05T14:37:01.509Z,45.07
2018-07-05T14:38:01.508Z,45.07
2018-07-05T14:39:01.482Z,45.37
2018-07-05T14:40:01.483Z,45.56
2018-07-05T14:41:01.460Z,45.47
2018-07-05T14:42:01.426Z,45.65
2018-07-05T14:43:01.420Z,45.27
2018-07-05T14:44:01.403Z,45.56
2018-07-05T14:45:01.377Z,45.56
2018-07-05T14:46:01.358Z,45.27
2018-07-05T14:47:01.352Z,45.47
2018-07-05T14:48:02.015Z,45.85
2018-07-05T14:49:01.314Z,45.95
2018-07-05T14:50:01.287Z,45.75
2018-07-05T14:51:01.270Z,45.56
2018-07-05T14:52:01.262Z,45.83
2018-07-05T14:53:01.239Z,46.22
2018-07-05T14:54:01.215Z,46.99
2018-07-05T14:55:01.213Z,46.70
2018-07-05T14:56:01.181Z,46.33
2018-07-05T14:57:01.177Z,45.75
2018-07-05T14:58:01.153Z,46.43
2018-07-05T14:59:01.133Z,46.53
2018-07-05T15:00:01.121Z,46.60
2018-07-05T15:01:01.113Z,46.99
2018-07-05T15:02:01.076Z,46.82
2018-07-05T15:03:01.060Z,46.45
2018-07-05T15:04:01.042Z,45.48
2018-07-05T15:05:01.025Z,45.02
2018-07-05T15:06:01.013Z,45.12
2018-07-05T15:07:00.991Z,45.39
2018-07-05T15:08:01.521Z,45.85
2018-07-05T15:09:00.960Z,45.27
2018-07-05T15:10:00.935Z,44.90
2018-07-05T15:11:00.946Z,44.81
2018-07-05T15:12:00.906Z,45.00
2018-07-05T15:13:00.882Z,45.02
2018-07-05T15:14:00.873Z,44.44
2018-07-05T15:15:00.845Z,44.51
2018-07-05T15:16:00.829Z,44.51
2018-07-05T15:17:00.808Z,44.49
2018-07-05T15:18:00.797Z,45.25
2018-07-05T15:19:00.776Z,46.80
2018-07-05T15:20:00.764Z,46.53
2018-07-05T15:21:00.744Z,46.62
2018-07-05T15:22:00.752Z,46.43
2018-07-05T15:23:00.708Z,46.82
2018-07-05T15:24:00.687Z,46.82
2018-07-05T15:25:00.681Z,46.80
2018-07-05T15:26:00.656Z,47.19
2018-07-05T15:27:00.645Z,47.02
2018-07-05T15:28:00.624Z,47.69
2018-07-05T15:29:00.606Z,48.15
2018-07-05T15:30:00.590Z,48.71
2018-07-05T15:31:00.578Z,48.93
2018-07-05T15:32:00.545Z,48.74
2018-07-05T15:33:00.539Z,48.44
2018-07-05T15:34:03.023Z,48.44
2018-07-05T15:35:00.497Z,48.54
2018-07-05T15:36:00.488Z,48.90
2018-07-05T15:37:00.461Z,49.10
2018-07-05T15:38:00.442Z,49.10
2018-07-05T15:39:00.432Z,49.39
2018-07-05T15:40:00.407Z,49.10
2018-07-05T15:41:00.397Z,49.10
2018-07-05T15:42:00.371Z,49.87
2018-07-05T15:43:00.367Z,49.00
2018-07-05T15:44:00.346Z,49.00
2018-07-05T15:45:00.318Z,49.00
2018-07-05T15:46:00.296Z,49.87
2018-07-05T15:47:00.337Z,50.52
2018-07-05T15:48:00.260Z,50.84
2018-07-05T15:49:00.264Z,50.35
2018-07-05T15:50:00.228Z,50.26
2018-07-05T15:51:00.211Z,50.52
2018-07-05T15:52:00.194Z,50.94
2018-07-05T15:53:00.169Z,50.26
2018-07-05T15:54:00.156Z,50.26
2018-07-05T15:55:00.140Z,50.55
2018-07-05T15:56:00.116Z,50.16
2018-07-05T15:57:00.095Z,50.43
2018-07-05T15:58:00.080Z,51.40
2018-07-05T15:59:00.055Z,51.28
2018-07-05T16:00:00.071Z,51.86
2018-07-05T16:01:08.026Z,52.73
2018-07-05T16:02:53.693Z,52.92
2018-07-05T16:03:53.621Z,52.73
2018-07-05T16:05:53.593Z,53.02
2018-07-05T16:06:46.967Z,53.11
2018-07-05T16:07:47.543Z,53.02
2018-07-05T16:08:46.895Z,52.82
2018-07-05T16:09:46.879Z,52.92
2018-07-05T16:10:46.859Z,52.82
2018-07-05T16:11:48.554Z,52.14
2018-07-05T16:12:46.833Z,51.95
2018-07-05T16:13:46.808Z,52.66
2018-07-05T16:14:46.848Z,52.24
2018-07-05T16:15:46.787Z,53.02
2018-07-05T16:16:46.770Z,53.31
2018-07-05T16:17:46.749Z,53.47
2018-07-05T16:18:46.748Z,53.77
2018-07-05T16:19:46.699Z,53.77
2018-07-05T16:20:46.696Z,53.96
2018-07-05T16:21:46.678Z,54.44
2018-07-05T16:22:46.651Z,55.19
2018-07-05T16:23:46.636Z,54.83
2018-07-05T16:24:46.613Z,54.15
2018-07-05T16:25:46.629Z,53.41
2018-07-05T16:26:47.549Z,53.21
2018-07-05T16:27:46.562Z,53.21
2018-07-05T16:28:46.534Z,53.11
2018-07-05T16:29:46.526Z,52.27
2018-07-05T16:30:46.478Z,51.32
2018-07-05T16:31:46.465Z,50.84
2018-07-05T16:32:46.445Z,49.73
2018-07-05T16:33:46.422Z,48.49
2018-07-05T16:34:46.403Z,48.49
2018-07-05T16:35:46.389Z,48.95
2018-07-05T16:36:46.370Z,48.76
2018-07-05T16:37:46.348Z,48.47
2018-07-05T16:38:46.332Z,49.12
2018-07-05T16:39:46.316Z,49.80
2018-07-05T16:40:46.293Z,49.02
2018-07-05T16:41:46.278Z,49.51
2018-07-05T16:42:47.109Z,48.76
2018-07-05T16:43:46.287Z,48.49
2018-07-05T16:44:46.470Z,47.16
2018-07-05T16:45:46.323Z,47.16
2018-07-05T16:46:46.217Z,47.33
2018-07-05T16:47:46.381Z,47.52
2018-07-05T16:48:49.129Z,46.96
2018-07-05T16:49:49.162Z,47.52
2018-07-05T16:50:49.172Z,47.55
2018-07-05T16:51:46.443Z,47.72
2018-07-05T16:52:46.129Z,47.62
2018-07-05T16:53:46.150Z,48.64
2018-07-05T16:54:46.188Z,49.02
2018-07-05T16:55:46.165Z,49.39
2018-07-05T16:56:46.157Z,49.41
2018-07-05T16:57:46.064Z,49.77
2018-07-05T16:58:46.185Z,49.58
2018-07-05T16:59:48.676Z,49.02
2018-07-05T17:00:46.100Z,48.37
2018-07-05T17:01:46.032Z,47.16
2018-07-05T17:02:45.965Z,46.86
2018-07-05T17:03:45.969Z,46.75
2018-07-05T17:04:46.036Z,47.40
2018-07-05T17:05:45.934Z,47.52
2018-07-05T17:06:45.977Z,47.60
2018-07-05T17:07:45.957Z,47.42
2018-07-05T17:08:45.877Z,48.44
2018-07-05T17:09:45.937Z,49.19
2018-07-05T17:10:46.652Z,49.10